sensor_id;sensor_type;location;lat;lon;timestamp;pressure;altitude;pressure_sealevel;temperature;humidity
66627;BME280;53498;50.422;14.912;2023-04-03T12:59:25;100077.72;;;4.57;47.16
66627;BME280;53498;50.422;14.912;2023-04-03T13:01:59;100069.00;;;4.54;47.66
66627;BME280;53498;50.422;14.912;2023-04-03T13:04:27;100068.50;;;4.62;46.23
66627;BME280;53498;50.422;14.912;2023-04-03T13:06:53;100079.75;;;4.64;48.17
66627;BME280;53498;50.422;14.912;2023-04-03T13:11:50;100069.81;;;4.53;46.25
66627;BME280;53498;50.422;14.912;2023-04-03T13:14:18;100072.28;;;4.29;46.84
66627;BME280;53498;50.422;14.912;2023-04-03T13:17:06;100069.72;;;4.72;45.92
66627;BME280;53498;50.422;14.912;2023-04-03T13:19:31;100064.06;;;4.81;43.92
66627;BME280;53498;50.422;14.912;2023-04-03T13:22:02;100065.75;;;4.58;43.90
66627;BME280;53498;50.422;14.912;2023-04-03T13:24:31;100062.25;;;4.57;44.42
66627;BME280;53498;50.422;14.912;2023-04-03T13:26:58;100062.09;;;4.53;45.23
66627;BME280;53498;50.422;14.912;2023-04-03T13:29:29;100057.78;;;4.52;45.24
66627;BME280;53498;50.422;14.912;2023-04-03T13:31:56;100050.97;;;4.54;46.46
66627;BME280;53498;50.422;14.912;2023-04-03T13:34:26;100064.44;;;4.47;46.13
66627;BME280;53498;50.422;14.912;2023-04-03T13:36:59;100057.16;;;4.36;47.14
66627;BME280;53498;50.422;14.912;2023-04-03T13:39:37;100054.69;;;4.18;45.99
66627;BME280;53498;50.422;14.912;2023-04-03T13:42:25;100063.34;;;4.41;44.93
66627;BME280;53498;50.422;14.912;2023-04-03T13:47:42;100075.22;;;4.38;43.26
66627;BME280;53498;50.422;14.912;2023-04-03T13:52:47;100051.81;;;4.11;44.53
66627;BME280;53498;50.422;14.912;2023-04-03T13:58:02;100046.28;;;4.66;44.14
66627;BME280;53498;50.422;14.912;2023-04-03T14:00:36;100039.75;;;4.97;44.58
66627;BME280;53498;50.422;14.912;2023-04-03T14:03:12;100042.91;;;5.12;45.68
66627;BME280;53498;50.422;14.912;2023-04-03T14:05:38;100046.91;;;4.81;45.44
66627;BME280;53498;50.422;14.912;2023-04-03T14:08:04;100052.00;;;4.36;46.17
66627;BME280;53498;50.422;14.912;2023-04-03T14:10:31;100052.50;;;4.28;46.48
66627;BME280;53498;50.422;14.912;2023-04-03T14:12:57;100051.50;;;4.24;46.78
66627;BME280;53498;50.422;14.912;2023-04-03T14:15:26;100049.88;;;4.26;46.57
66627;BME280;53498;50.422;14.912;2023-04-03T14:17:54;100056.44;;;4.40;44.97
66627;BME280;53498;50.422;14.912;2023-04-03T14:20:23;100044.06;;;4.32;45.92
66627;BME280;53498;50.422;14.912;2023-04-03T14:22:50;100044.31;;;4.59;45.14
66627;BME280;53498;50.422;14.912;2023-04-03T14:25:17;100041.47;;;4.74;44.01
66627;BME280;53498;50.422;14.912;2023-04-03T14:27:49;100056.81;;;4.50;43.84
66627;BME280;53498;50.422;14.912;2023-04-03T14:30:17;100045.59;;;4.27;45.13
66627;BME280;53498;50.422;14.912;2023-04-03T14:32:44;100048.78;;;4.21;43.84
66627;BME280;53498;50.422;14.912;2023-04-03T14:35:10;100044.59;;;4.23;45.27
66627;BME280;53498;50.422;14.912;2023-04-03T14:37:36;100041.91;;;4.20;44.26
66627;BME280;53498;50.422;14.912;2023-04-03T14:40:03;100039.03;;;3.93;45.10
66627;BME280;53498;50.422;14.912;2023-04-03T14:42:33;100033.59;;;4.06;45.99
66627;BME280;53498;50.422;14.912;2023-04-03T14:45:18;100031.94;;;4.29;46.86
66627;BME280;53498;50.422;14.912;2023-04-03T14:48:02;100050.66;;;4.46;43.73
66627;BME280;53498;50.422;14.912;2023-04-03T14:50:48;100059.22;;;4.24;43.32
66627;BME280;53498;50.422;14.912;2023-04-03T14:53:32;100041.66;;;4.14;43.82
66627;BME280;53498;50.422;14.912;2023-04-03T14:56:23;100042.31;;;4.10;43.98
66627;BME280;53498;50.422;14.912;2023-04-03T14:59:09;100044.31;;;3.96;44.22
66627;BME280;53498;50.422;14.912;2023-04-03T15:01:54;100045.69;;;3.88;45.25
66627;BME280;53498;50.422;14.912;2023-04-03T15:04:38;100038.69;;;4.05;44.61
66627;BME280;53498;50.422;14.912;2023-04-03T15:07:23;100043.84;;;4.05;45.92
66627;BME280;53498;50.422;14.912;2023-04-03T15:12:59;100050.59;;;4.45;46.28
66627;BME280;53498;50.422;14.912;2023-04-03T15:15:43;100057.53;;;4.46;46.20
66627;BME280;53498;50.422;14.912;2023-04-03T15:18:15;100058.84;;;4.36;45.20
66627;BME280;53498;50.422;14.912;2023-04-03T15:20:42;100056.69;;;4.26;45.77
66627;BME280;53498;50.422;14.912;2023-04-03T15:23:10;100052.00;;;4.15;44.42
66627;BME280;53498;50.422;14.912;2023-04-03T15:25:37;100046.78;;;4.14;45.27
66627;BME280;53498;50.422;14.912;2023-04-03T15:28:03;100050.13;;;4.11;45.95
66627;BME280;53498;50.422;14.912;2023-04-03T15:30:28;100056.50;;;4.00;45.17
66627;BME280;53498;50.422;14.912;2023-04-03T15:32:54;100056.72;;;4.05;45.64
66627;BME280;53498;50.422;14.912;2023-04-03T15:35:20;100051.75;;;4.09;45.96
66627;BME280;53498;50.422;14.912;2023-04-03T15:37:45;100048.34;;;4.10;46.33
66627;BME280;53498;50.422;14.912;2023-04-03T15:40:12;100058.91;;;4.37;46.87
66627;BME280;53498;50.422;14.912;2023-04-03T15:42:38;100063.16;;;4.16;44.83
66627;BME280;53498;50.422;14.912;2023-04-03T15:45:04;100059.53;;;4.11;45.46
66627;BME280;53498;50.422;14.912;2023-04-03T15:47:30;100057.72;;;4.08;46.44
66627;BME280;53498;50.422;14.912;2023-04-03T15:49:56;100051.13;;;4.15;46.10
66627;BME280;53498;50.422;14.912;2023-04-03T15:52:22;100061.66;;;4.00;46.68
66627;BME280;53498;50.422;14.912;2023-04-03T15:54:47;100058.91;;;3.96;46.43
66627;BME280;53498;50.422;14.912;2023-04-03T15:57:13;100051.31;;;3.99;46.04
66627;BME280;53498;50.422;14.912;2023-04-03T15:59:39;100060.22;;;4.07;46.04
66627;BME280;53498;50.422;14.912;2023-04-03T16:02:06;100058.28;;;4.01;45.31
66627;BME280;53498;50.422;14.912;2023-04-03T16:04:33;100061.66;;;4.00;46.62
66627;BME280;53498;50.422;14.912;2023-04-03T16:07:03;100051.66;;;3.87;46.07
66627;BME280;53498;50.422;14.912;2023-04-03T16:09:30;100052.25;;;4.22;46.84
66627;BME280;53498;50.422;14.912;2023-04-03T16:11:56;100063.25;;;4.17;45.14
66627;BME280;53498;50.422;14.912;2023-04-03T16:14:23;100057.34;;;4.20;46.18
66627;BME280;53498;50.422;14.912;2023-04-03T16:16:49;100059.41;;;4.08;46.38
66627;BME280;53498;50.422;14.912;2023-04-03T16:19:15;100053.00;;;3.98;46.16
66627;BME280;53498;50.422;14.912;2023-04-03T16:21:41;100053.06;;;4.00;46.42
66627;BME280;53498;50.422;14.912;2023-04-03T16:24:06;100061.28;;;4.12;46.88
66627;BME280;53498;50.422;14.912;2023-04-03T16:26:32;100065.91;;;4.00;46.41
66627;BME280;53498;50.422;14.912;2023-04-03T16:28:58;100071.47;;;4.09;45.94
66627;BME280;53498;50.422;14.912;2023-04-03T16:31:24;100063.09;;;3.93;45.89
66627;BME280;53498;50.422;14.912;2023-04-03T16:33:50;100055.22;;;3.90;45.97
66627;BME280;53498;50.422;14.912;2023-04-03T16:36:17;100066.66;;;3.76;46.97
66627;BME280;53498;50.422;14.912;2023-04-03T16:38:42;100069.88;;;3.72;47.29
66627;BME280;53498;50.422;14.912;2023-04-03T16:41:09;100067.16;;;3.88;48.35
66627;BME280;53498;50.422;14.912;2023-04-03T16:43:34;100063.84;;;3.91;48.13
66627;BME280;53498;50.422;14.912;2023-04-03T16:46:01;100075.13;;;3.74;47.76
66627;BME280;53498;50.422;14.912;2023-04-03T16:48:28;100075.16;;;3.75;48.62
66627;BME280;53498;50.422;14.912;2023-04-03T16:50:54;100081.44;;;3.82;47.55
66627;BME280;53498;50.422;14.912;2023-04-03T16:53:21;100081.53;;;3.83;47.12
66627;BME280;53498;50.422;14.912;2023-04-03T16:55:47;100072.47;;;3.72;45.49
66627;BME280;53498;50.422;14.912;2023-04-03T16:58:13;100082.09;;;3.76;45.36
66627;BME280;53498;50.422;14.912;2023-04-03T17:00:40;100080.03;;;3.69;45.60
66627;BME280;53498;50.422;14.912;2023-04-03T17:03:06;100087.63;;;3.66;45.42
66627;BME280;53498;50.422;14.912;2023-04-03T17:05:33;100076.28;;;3.61;45.65
66627;BME280;53498;50.422;14.912;2023-04-03T17:07:58;100077.00;;;3.58;46.52
66627;BME280;53498;50.422;14.912;2023-04-03T17:10:25;100074.44;;;3.58;47.89
66627;BME280;53498;50.422;14.912;2023-04-03T17:12:51;100075.31;;;3.59;47.85
66627;BME280;53498;50.422;14.912;2023-04-03T17:15:17;100080.19;;;3.53;47.33
66627;BME280;53498;50.422;14.912;2023-04-03T17:17:43;100075.59;;;3.45;48.10
66627;BME280;53498;50.422;14.912;2023-04-03T17:20:10;100081.13;;;3.35;48.35
66627;BME280;53498;50.422;14.912;2023-04-03T17:22:35;100073.28;;;3.32;48.62
66627;BME280;53498;50.422;14.912;2023-04-03T17:25:02;100082.75;;;3.14;48.44
66627;BME280;53498;50.422;14.912;2023-04-03T17:27:28;100087.59;;;3.08;49.75
66627;BME280;53498;50.422;14.912;2023-04-03T17:29:54;100091.50;;;2.99;48.75
66627;BME280;53498;50.422;14.912;2023-04-03T17:32:20;100087.31;;;3.01;49.76
66627;BME280;53498;50.422;14.912;2023-04-03T17:34:46;100084.66;;;3.00;48.63
66627;BME280;53498;50.422;14.912;2023-04-03T17:37:12;100090.38;;;2.94;49.08
66627;BME280;53498;50.422;14.912;2023-04-03T17:39:38;100090.47;;;2.96;48.77
66627;BME280;53498;50.422;14.912;2023-04-03T17:42:04;100088.63;;;2.93;48.98
66627;BME280;53498;50.422;14.912;2023-04-03T17:44:30;100094.50;;;2.91;49.59
66627;BME280;53498;50.422;14.912;2023-04-03T17:46:55;100094.44;;;2.89;49.48
66627;BME280;53498;50.422;14.912;2023-04-03T17:49:21;100091.75;;;2.86;49.92
66627;BME280;53498;50.422;14.912;2023-04-03T17:51:47;100096.88;;;2.86;50.29
66627;BME280;53498;50.422;14.912;2023-04-03T17:54:13;100092.56;;;2.85;50.09
66627;BME280;53498;50.422;14.912;2023-04-03T17:56:39;100099.59;;;2.89;51.06
66627;BME280;53498;50.422;14.912;2023-04-03T17:59:08;100090.47;;;2.78;49.92
66627;BME280;53498;50.422;14.912;2023-04-03T18:01:34;100093.28;;;2.83;49.51
66627;BME280;53498;50.422;14.912;2023-04-03T18:04:03;100096.72;;;2.83;50.72
66627;BME280;53498;50.422;14.912;2023-04-03T18:06:37;100095.72;;;2.80;50.51
66627;BME280;53498;50.422;14.912;2023-04-03T18:09:08;100107.88;;;2.84;50.14
66627;BME280;53498;50.422;14.912;2023-04-03T18:11:37;100102.59;;;2.81;50.18
66627;BME280;53498;50.422;14.912;2023-04-03T18:14:05;100102.25;;;2.73;50.36
66627;BME280;53498;50.422;14.912;2023-04-03T18:16:32;100100.53;;;2.91;48.64
66627;BME280;53498;50.422;14.912;2023-04-03T18:18:58;100099.16;;;2.80;50.70
66627;BME280;53498;50.422;14.912;2023-04-03T18:21:24;100104.59;;;2.86;51.72
66627;BME280;53498;50.422;14.912;2023-04-03T18:23:52;100101.47;;;2.75;50.41
66627;BME280;53498;50.422;14.912;2023-04-03T18:26:19;100103.75;;;2.87;51.43
66627;BME280;53498;50.422;14.912;2023-04-03T18:28:54;100110.94;;;2.94;50.01
66627;BME280;53498;50.422;14.912;2023-04-03T18:31:21;100113.91;;;3.02;49.96
66627;BME280;53498;50.422;14.912;2023-04-03T18:33:53;100115.22;;;2.94;51.41
66627;BME280;53498;50.422;14.912;2023-04-03T18:36:20;100115.34;;;2.97;51.15
66627;BME280;53498;50.422;14.912;2023-04-03T18:38:46;100116.47;;;3.02;51.07
66627;BME280;53498;50.422;14.912;2023-04-03T18:41:12;100112.44;;;3.07;52.04
66627;BME280;53498;50.422;14.912;2023-04-03T18:43:39;100118.59;;;3.11;50.48
66627;BME280;53498;50.422;14.912;2023-04-03T18:46:05;100108.91;;;3.05;50.89
66627;BME280;53498;50.422;14.912;2023-04-03T18:48:32;100105.50;;;3.06;50.59
66627;BME280;53498;50.422;14.912;2023-04-03T18:50:58;100115.31;;;2.95;51.61
66627;BME280;53498;50.422;14.912;2023-04-03T18:53:25;100113.59;;;2.96;51.40
66627;BME280;53498;50.422;14.912;2023-04-03T18:55:51;100114.56;;;2.98;50.83
66627;BME280;53498;50.422;14.912;2023-04-03T18:58:17;100117.28;;;2.83;50.69
66627;BME280;53498;50.422;14.912;2023-04-03T19:00:42;100120.06;;;2.88;50.29
66627;BME280;53498;50.422;14.912;2023-04-03T19:03:09;100116.56;;;2.86;50.06
66627;BME280;53498;50.422;14.912;2023-04-03T19:05:36;100122.03;;;2.93;48.99
66627;BME280;53498;50.422;14.912;2023-04-03T19:08:09;100121.59;;;2.84;49.44
66627;BME280;53498;50.422;14.912;2023-04-03T19:10:35;100116.41;;;2.83;48.75
66627;BME280;53498;50.422;14.912;2023-04-03T19:13:01;100119.13;;;2.86;50.30
66627;BME280;53498;50.422;14.912;2023-04-03T19:15:27;100130.03;;;2.82;49.40
66627;BME280;53498;50.422;14.912;2023-04-03T19:17:53;100116.75;;;2.72;50.24
66627;BME280;53498;50.422;14.912;2023-04-03T19:20:18;100118.31;;;2.69;50.03
66627;BME280;53498;50.422;14.912;2023-04-03T19:22:45;100121.25;;;2.59;51.46
66627;BME280;53498;50.422;14.912;2023-04-03T19:25:11;100110.53;;;2.67;51.17
66627;BME280;53498;50.422;14.912;2023-04-03T19:27:38;100116.56;;;2.68;50.70
66627;BME280;53498;50.422;14.912;2023-04-03T19:30:05;100120.38;;;2.58;50.63
66627;BME280;53498;50.422;14.912;2023-04-03T19:32:32;100114.19;;;2.54;51.73
66627;BME280;53498;50.422;14.912;2023-04-03T19:34:59;100120.41;;;2.60;52.06
66627;BME280;53498;50.422;14.912;2023-04-03T19:37:26;100117.13;;;2.62;51.28
66627;BME280;53498;50.422;14.912;2023-04-03T19:39:52;100118.88;;;2.63;51.14
66627;BME280;53498;50.422;14.912;2023-04-03T19:42:18;100114.50;;;2.61;51.45
66627;BME280;53498;50.422;14.912;2023-04-03T19:44:44;100112.88;;;2.63;51.72
66627;BME280;53498;50.422;14.912;2023-04-03T19:47:13;100119.50;;;2.58;51.87
66627;BME280;53498;50.422;14.912;2023-04-03T19:49:41;100119.34;;;2.54;51.84
66627;BME280;53498;50.422;14.912;2023-04-03T19:52:09;100128.75;;;2.54;52.00
66627;BME280;53498;50.422;14.912;2023-04-03T19:54:35;100128.44;;;2.48;53.73
66627;BME280;53498;50.422;14.912;2023-04-03T19:57:01;100133.31;;;2.43;53.82
66627;BME280;53498;50.422;14.912;2023-04-03T19:59:27;100132.09;;;2.35;54.41
66627;BME280;53498;50.422;14.912;2023-04-03T20:01:53;100125.63;;;2.43;52.62
66627;BME280;53498;50.422;14.912;2023-04-03T20:04:18;100119.75;;;2.46;52.43
66627;BME280;53498;50.422;14.912;2023-04-03T20:06:44;100127.53;;;2.47;52.54
66627;BME280;53498;50.422;14.912;2023-04-03T20:09:11;100127.69;;;2.50;51.86
66627;BME280;53498;50.422;14.912;2023-04-03T20:11:37;100126.22;;;2.55;53.40
66627;BME280;53498;50.422;14.912;2023-04-03T20:14:07;100114.34;;;2.58;52.56
66627;BME280;53498;50.422;14.912;2023-04-03T20:16:33;100112.66;;;2.58;53.67
66627;BME280;53498;50.422;14.912;2023-04-03T20:18:58;100114.34;;;2.58;52.92
66627;BME280;53498;50.422;14.912;2023-04-03T20:21:29;100114.13;;;2.35;52.48
66627;BME280;53498;50.422;14.912;2023-04-03T20:23:57;100110.50;;;2.49;53.63
66627;BME280;53498;50.422;14.912;2023-04-03T20:26:25;100109.06;;;2.54;56.38
66627;BME280;53498;50.422;14.912;2023-04-03T20:28:53;100111.25;;;2.47;53.53
66627;BME280;53498;50.422;14.912;2023-04-03T20:31:20;100112.28;;;2.50;53.55
66627;BME280;53498;50.422;14.912;2023-04-03T20:33:46;100107.13;;;2.50;56.19
66627;BME280;53498;50.422;14.912;2023-04-03T20:36:14;100107.50;;;2.40;55.83
66627;BME280;53498;50.422;14.912;2023-04-03T20:38:40;100103.47;;;2.45;57.32
66627;BME280;53498;50.422;14.912;2023-04-03T20:41:06;100105.38;;;2.49;57.43
66627;BME280;53498;50.422;14.912;2023-04-03T20:43:32;100105.38;;;2.49;59.91
66627;BME280;53498;50.422;14.912;2023-04-03T20:46:01;100104.34;;;2.46;56.89
66627;BME280;53498;50.422;14.912;2023-04-03T20:48:28;100102.31;;;2.39;56.02
66627;BME280;53498;50.422;14.912;2023-04-03T20:50:54;100099.66;;;2.37;58.94
66627;BME280;53498;50.422;14.912;2023-04-03T20:53:20;100100.97;;;2.29;60.71
66627;BME280;53498;50.422;14.912;2023-04-03T20:55:59;100097.59;;;2.30;62.48
66627;BME280;53498;50.422;14.912;2023-04-03T20:58:25;100097.50;;;2.28;63.11
66627;BME280;53498;50.422;14.912;2023-04-03T21:00:54;100093.75;;;2.22;63.38
66627;BME280;53498;50.422;14.912;2023-04-03T21:03:25;100109.00;;;2.19;63.51
66627;BME280;53498;50.422;14.912;2023-04-03T21:20:24;100106.59;;;2.22;61.07
66627;BME280;53498;50.422;14.912;2023-04-03T21:22:50;100109.16;;;2.22;60.65
66627;BME280;53498;50.422;14.912;2023-04-03T21:25:16;100106.28;;;2.16;60.42
66627;BME280;53498;50.422;14.912;2023-04-03T21:27:41;100108.69;;;2.13;62.54
66627;BME280;53498;50.422;14.912;2023-04-03T21:30:07;100106.97;;;1.95;62.71
66627;BME280;53498;50.422;14.912;2023-04-03T21:32:33;100107.59;;;2.07;64.00
66627;BME280;53498;50.422;14.912;2023-04-03T21:34:58;100104.06;;;2.05;62.09
66627;BME280;53498;50.422;14.912;2023-04-03T21:37:24;100107.47;;;1.88;59.63
66627;BME280;53498;50.422;14.912;2023-04-03T21:39:49;100106.50;;;1.86;59.42
66627;BME280;53498;50.422;14.912;2023-04-03T21:42:15;100097.94;;;1.85;59.03
66627;BME280;53498;50.422;14.912;2023-04-03T21:44:41;100108.66;;;1.95;61.01
66627;BME280;53498;50.422;14.912;2023-04-03T21:47:07;100107.03;;;1.97;59.29
66627;BME280;53498;50.422;14.912;2023-04-03T21:49:32;100102.31;;;2.04;60.94
66627;BME280;53498;50.422;14.912;2023-04-03T21:51:58;100101.09;;;2.14;58.63
66627;BME280;53498;50.422;14.912;2023-04-03T21:54:23;100106.22;;;2.14;59.55
66627;BME280;53498;50.422;14.912;2023-04-03T21:56:49;100101.38;;;2.20;59.87
66627;BME280;53498;50.422;14.912;2023-04-03T21:59:16;100095.28;;;2.18;62.08
66627;BME280;53498;50.422;14.912;2023-04-03T22:01:42;100101.75;;;2.10;59.26
66627;BME280;53498;50.422;14.912;2023-04-03T22:04:07;100103.69;;;1.98;58.92
66627;BME280;53498;50.422;14.912;2023-04-03T22:06:33;100104.41;;;1.95;59.38
66627;BME280;53498;50.422;14.912;2023-04-03T22:08:59;100099.81;;;2.06;60.57
66627;BME280;53498;50.422;14.912;2023-04-03T22:11:25;100101.81;;;2.12;61.31
66627;BME280;53498;50.422;14.912;2023-04-03T22:13:52;100100.06;;;2.11;60.53
66627;BME280;53498;50.422;14.912;2023-04-03T22:16:18;100103.66;;;2.14;60.67
66627;BME280;53498;50.422;14.912;2023-04-03T22:18:47;100117.56;;;2.01;59.91
66627;BME280;53498;50.422;14.912;2023-04-03T22:21:13;100109.28;;;2.07;60.67
66627;BME280;53498;50.422;14.912;2023-04-03T22:23:39;100109.28;;;1.91;59.96
66627;BME280;53498;50.422;14.912;2023-04-03T22:26:06;100105.44;;;1.99;60.11
66627;BME280;53498;50.422;14.912;2023-04-03T22:28:34;100105.19;;;1.94;60.73
66627;BME280;53498;50.422;14.912;2023-04-03T22:31:01;100101.34;;;2.02;60.97
66627;BME280;53498;50.422;14.912;2023-04-03T22:33:33;100111.59;;;2.02;60.88
66627;BME280;53498;50.422;14.912;2023-04-03T22:36:01;100104.31;;;1.94;60.43
66627;BME280;53498;50.422;14.912;2023-04-03T22:38:28;100104.72;;;2.01;61.83
66627;BME280;53498;50.422;14.912;2023-04-03T22:40:58;100100.47;;;2.02;62.33
66627;BME280;53498;50.422;14.912;2023-04-03T22:43:25;100104.97;;;1.90;60.69
66627;BME280;53498;50.422;14.912;2023-04-03T22:45:51;100106.97;;;1.95;61.49
66627;BME280;53498;50.422;14.912;2023-04-03T22:48:17;100109.22;;;1.89;61.56
66627;BME280;53498;50.422;14.912;2023-04-03T22:50:50;100098.63;;;1.99;62.50
66627;BME280;53498;50.422;14.912;2023-04-03T22:53:16;100101.91;;;1.97;63.59
66627;BME280;53498;50.422;14.912;2023-04-03T22:55:42;100096.31;;;1.88;61.93
66627;BME280;53498;50.422;14.912;2023-04-03T22:58:07;100089.56;;;1.90;61.92
66627;BME280;53498;50.422;14.912;2023-04-03T23:00:33;100101.59;;;1.91;62.07
66627;BME280;53498;50.422;14.912;2023-04-03T23:02:59;100097.34;;;1.91;63.37
66627;BME280;53498;50.422;14.912;2023-04-03T23:05:27;100094.69;;;1.90;64.13
66627;BME280;53498;50.422;14.912;2023-04-03T23:07:52;100100.16;;;1.96;65.86
66627;BME280;53498;50.422;14.912;2023-04-03T23:10:19;100102.03;;;1.82;65.65
66627;BME280;53498;50.422;14.912;2023-04-03T23:12:44;100095.13;;;1.81;64.52
66627;BME280;53498;50.422;14.912;2023-04-03T23:15:10;100091.84;;;1.67;65.19
66627;BME280;53498;50.422;14.912;2023-04-03T23:17:38;100090.16;;;1.51;65.92
66627;BME280;53498;50.422;14.912;2023-04-03T23:20:05;100094.81;;;1.42;66.60
66627;BME280;53498;50.422;14.912;2023-04-03T23:22:30;100094.31;;;1.33;66.41
66627;BME280;53498;50.422;14.912;2023-04-03T23:24:56;100090.25;;;1.36;66.31
66627;BME280;53498;50.422;14.912;2023-04-03T23:27:21;100085.28;;;1.39;66.34
66627;BME280;53498;50.422;14.912;2023-04-03T23:29:47;100082.16;;;1.45;66.59
66627;BME280;53498;50.422;14.912;2023-04-03T23:32:13;100079.59;;;1.45;67.02
66627;BME280;53498;50.422;14.912;2023-04-03T23:34:38;100089.84;;;1.45;66.43
66627;BME280;53498;50.422;14.912;2023-04-03T23:37:04;100083.34;;;1.52;68.05
66627;BME280;53498;50.422;14.912;2023-04-03T23:39:32;100078.53;;;1.58;67.87
66627;BME280;53498;50.422;14.912;2023-04-03T23:41:57;100077.66;;;1.57;67.62
66627;BME280;53498;50.422;14.912;2023-04-03T23:44:23;100075.56;;;1.50;67.15
66627;BME280;53498;50.422;14.912;2023-04-03T23:46:48;100081.81;;;1.55;69.05
66627;BME280;53498;50.422;14.912;2023-04-03T23:49:14;100074.94;;;1.54;69.28
66627;BME280;53498;50.422;14.912;2023-04-03T23:51:40;100068.69;;;1.49;69.07
66627;BME280;53498;50.422;14.912;2023-04-03T23:54:06;100072.38;;;1.54;68.13
66627;BME280;53498;50.422;14.912;2023-04-03T23:56:31;100063.19;;;1.42;69.43
66627;BME280;53498;50.422;14.912;2023-04-03T23:58:57;100056.75;;;1.33;70.43
